createdAt,value
2022-08-23T00:01:31.319Z,67.47
2022-08-23T00:04:01.067Z,67.84
2022-08-23T00:06:28.233Z,67.93
2022-08-23T00:08:55.087Z,68.08
2022-08-23T00:11:26.589Z,67.95
2022-08-23T00:13:53.179Z,67.77
2022-08-23T00:16:19.788Z,68.03
2022-08-23T00:18:48.990Z,67.81
2022-08-23T00:21:15.982Z,68.30
2022-08-23T00:23:42.610Z,67.93
2022-08-23T00:26:09.276Z,68.69
2022-08-23T00:28:35.948Z,69.47
2022-08-23T00:31:03.100Z,69.12
2022-08-23T00:33:29.660Z,68.96
2022-08-23T00:35:56.314Z,68.40
2022-08-23T00:38:33.800Z,68.36
2022-08-23T00:41:02.234Z,68.98
2022-08-23T00:43:58.764Z,68.51
2022-08-23T00:46:58.560Z,68.36
2022-08-23T00:49:25.843Z,68.23
2022-08-23T00:51:57.630Z,68.38
2022-08-23T00:54:25.359Z,68.64
2022-08-23T00:56:52.302Z,68.74
2022-08-23T00:59:19.542Z,68.60
2022-08-23T01:01:46.160Z,69.18
2022-08-23T01:04:13.126Z,69.33
2022-08-23T01:06:44.553Z,69.20
2022-08-23T01:09:17.021Z,69.29
2022-08-23T01:11:51.148Z,68.58
2022-08-23T01:14:19.820Z,68.68
2022-08-23T01:16:49.697Z,68.69
2022-08-23T01:19:42.395Z,69.35
2022-08-23T01:22:09.356Z,68.97
2022-08-23T01:25:05.726Z,68.53
2022-08-23T01:27:23.187Z,68.13
2022-08-23T01:29:49.801Z,68.54
2022-08-23T01:32:16.728Z,68.73
2022-08-23T01:34:51.497Z,68.92
2022-08-23T01:37:19.757Z,69.03
2022-08-23T01:39:46.352Z,69.32
2022-08-23T01:42:12.980Z,68.99
2022-08-23T01:44:39.677Z,69.50
2022-08-23T01:47:07.578Z,68.85
2022-08-23T01:49:35.218Z,69.22
2022-08-23T01:52:01.835Z,68.94
2022-08-23T01:54:29.452Z,69.37
2022-08-23T01:56:56.641Z,69.35
2022-08-23T01:59:24.294Z,69.55
2022-08-23T02:01:51.444Z,69.54
2022-08-23T02:04:18.146Z,69.64
2022-08-23T02:06:44.771Z,69.42
2022-08-23T02:09:17.886Z,69.07
2022-08-23T02:11:45.483Z,68.88
2022-08-23T02:14:14.326Z,69.59
2022-08-23T02:16:43.838Z,69.09
2022-08-23T02:19:25.416Z,69.32
2022-08-23T02:21:53.158Z,68.84
2022-08-23T02:24:21.528Z,69.20
2022-08-23T02:26:49.864Z,69.00
2022-08-23T02:29:23.904Z,69.65
2022-08-23T02:31:50.884Z,69.99
2022-08-23T02:34:18.455Z,69.96
2022-08-23T02:36:45.430Z,69.55
2022-08-23T02:39:13.450Z,69.49
2022-08-23T02:41:41.399Z,69.31
2022-08-23T02:44:08.661Z,69.29
2022-08-23T02:46:35.709Z,69.36
2022-08-23T02:49:02.409Z,69.01
2022-08-23T02:51:29.040Z,69.17
2022-08-23T02:53:55.584Z,68.93
2022-08-23T02:56:22.194Z,69.02
2022-08-23T02:58:54.044Z,69.63
2022-08-23T03:01:26.702Z,69.77
2022-08-23T03:03:53.595Z,69.59
2022-08-23T03:06:25.348Z,70.22
2022-08-23T03:08:53.695Z,69.63
2022-08-23T03:11:21.862Z,70.06
2022-08-23T03:13:48.814Z,70.27
2022-08-23T03:16:16.414Z,69.95
2022-08-23T03:18:43.434Z,69.53
2022-08-23T03:21:10.404Z,70.00
2022-08-23T03:23:37.550Z,70.46
2022-08-23T03:26:04.874Z,70.88
2022-08-23T03:28:33.112Z,70.16
2022-08-23T03:30:59.647Z,70.00
2022-08-23T03:33:26.327Z,70.08
2022-08-23T03:35:52.923Z,70.06
2022-08-23T03:38:20.003Z,69.68
2022-08-23T03:40:46.607Z,69.71
2022-08-23T03:43:14.784Z,69.36
2022-08-23T03:45:41.396Z,69.56
2022-08-23T03:48:07.943Z,69.45
2022-08-23T03:50:34.570Z,69.19
2022-08-23T03:53:01.119Z,69.28
2022-08-23T03:55:27.796Z,69.16
2022-08-23T03:57:54.416Z,68.89
2022-08-23T04:00:21.223Z,68.90
2022-08-23T04:02:47.908Z,68.90
2022-08-23T04:05:14.448Z,69.38
2022-08-23T04:07:41.031Z,69.29
2022-08-23T04:10:08.912Z,69.35
2022-08-23T04:12:36.148Z,69.82
2022-08-23T04:15:03.472Z,69.34
2022-08-23T04:17:32.484Z,69.58
2022-08-23T04:19:59.472Z,70.49
2022-08-23T04:22:26.057Z,69.86
2022-08-23T04:24:52.682Z,69.68
2022-08-23T04:27:19.327Z,69.46
2022-08-23T04:29:45.885Z,70.34
2022-08-23T04:32:12.615Z,69.93
2022-08-23T04:34:45.386Z,70.00
2022-08-23T04:37:12.765Z,70.03
2022-08-23T04:39:58.039Z,69.64
2022-08-23T04:42:24.995Z,69.62
2022-08-23T04:44:51.569Z,69.79
2022-08-23T04:47:18.177Z,69.75
2022-08-23T04:49:44.725Z,69.48
2022-08-23T04:52:12.207Z,69.33
2022-08-23T04:54:40.793Z,69.09
2022-08-23T04:57:07.374Z,69.38
2022-08-23T04:59:33.915Z,69.12
2022-08-23T05:02:00.474Z,69.49
2022-08-23T05:04:27.034Z,69.62
2022-08-23T05:06:53.653Z,69.30
2022-08-23T05:09:20.904Z,69.39
2022-08-23T05:11:47.641Z,68.81
2022-08-23T05:14:14.233Z,68.41
2022-08-23T05:16:40.770Z,68.16
2022-08-23T05:19:07.372Z,68.03
2022-08-23T05:21:33.940Z,68.11
2022-08-23T05:24:00.673Z,68.03
2022-08-23T05:26:30.314Z,67.42
2022-08-23T05:28:56.949Z,67.69
2022-08-23T05:31:24.805Z,67.08
2022-08-23T05:33:51.890Z,66.63
2022-08-23T05:36:19.272Z,66.87
2022-08-23T05:38:47.236Z,66.34
2022-08-23T05:41:15.262Z,66.73
2022-08-23T05:43:42.301Z,66.80
2022-08-23T05:46:12.663Z,66.15
2022-08-23T05:48:41.092Z,66.41
2022-08-23T05:51:16.540Z,66.19
2022-08-23T05:53:43.689Z,66.06
2022-08-23T05:56:13.428Z,65.64
2022-08-23T05:58:40.094Z,64.32
2022-08-23T06:01:06.754Z,64.88
2022-08-23T06:03:33.468Z,65.09
2022-08-23T06:06:00.599Z,64.93
2022-08-23T06:08:28.366Z,64.08
2022-08-23T06:11:01.002Z,64.15
2022-08-23T06:13:27.766Z,63.84
2022-08-23T06:15:54.648Z,65.24
2022-08-23T06:18:21.208Z,64.68
2022-08-23T06:20:47.860Z,65.13
2022-08-23T06:23:14.441Z,64.89
2022-08-23T06:25:41.196Z,65.16
2022-08-23T06:28:07.791Z,65.02
2022-08-23T06:30:39.831Z,64.87
2022-08-23T06:33:06.640Z,64.87
2022-08-23T06:35:38.778Z,65.17
2022-08-23T06:38:06.802Z,64.26
2022-08-23T06:40:35.471Z,63.34
2022-08-23T06:43:02.019Z,61.10
2022-08-23T06:45:32.408Z,61.26
2022-08-23T06:48:02.410Z,60.68
2022-08-23T06:50:32.455Z,59.76
2022-08-23T06:52:59.216Z,59.99
2022-08-23T06:55:25.949Z,59.33
2022-08-23T06:57:52.549Z,59.41
2022-08-23T07:00:22.276Z,59.14
2022-08-23T07:02:50.297Z,59.07
2022-08-23T07:05:17.061Z,59.27
2022-08-23T07:07:44.410Z,59.44
2022-08-23T07:10:11.416Z,60.29
2022-08-23T07:12:38.907Z,59.65
2022-08-23T07:15:05.630Z,59.99
2022-08-23T07:17:32.177Z,60.19
2022-08-23T07:19:58.732Z,60.17
2022-08-23T07:22:25.328Z,60.11
2022-08-23T07:24:51.916Z,59.62
2022-08-23T07:27:18.510Z,59.23
2022-08-23T07:29:45.133Z,58.95
2022-08-23T07:32:11.779Z,59.01
2022-08-23T07:34:38.485Z,59.04
2022-08-23T07:37:15.191Z,59.00
2022-08-23T07:39:42.576Z,58.58
2022-08-23T07:42:23.449Z,57.98
2022-08-23T07:44:51.680Z,58.12
2022-08-23T07:47:19.345Z,59.23
2022-08-23T07:49:46.792Z,58.63
2022-08-23T07:52:13.371Z,58.03
2022-08-23T07:54:40.496Z,56.83
2022-08-23T07:57:10.171Z,58.34
2022-08-23T07:59:36.718Z,59.95
2022-08-23T08:02:03.547Z,57.15
2022-08-23T08:04:30.218Z,59.36
2022-08-23T08:07:17.771Z,60.19
2022-08-23T08:09:45.409Z,59.91
2022-08-23T08:12:12.089Z,60.28
2022-08-23T08:14:38.915Z,58.90
2022-08-23T08:17:06.017Z,60.36
2022-08-23T08:19:32.572Z,60.32
2022-08-23T08:21:59.220Z,60.43
2022-08-23T08:24:25.807Z,60.50
2022-08-23T08:26:52.525Z,60.18
2022-08-23T08:29:19.198Z,60.02
2022-08-23T08:31:51.289Z,60.13
2022-08-23T08:34:20.288Z,59.71
2022-08-23T08:36:54.697Z,58.29
2022-08-23T08:39:23.720Z,58.29
2022-08-23T08:42:03.942Z,57.94
2022-08-23T08:44:40.839Z,58.98
2022-08-23T08:47:10.735Z,58.32
2022-08-23T08:49:40.746Z,58.09
2022-08-23T08:52:21.291Z,58.79
2022-08-23T08:54:49.881Z,59.04
2022-08-23T08:57:22.624Z,58.58
2022-08-23T08:59:53.918Z,58.88
2022-08-23T09:02:32.294Z,58.41
2022-08-23T09:05:04.766Z,59.20
2022-08-23T09:07:37.369Z,60.03
2022-08-23T09:10:26.202Z,60.38
2022-08-23T09:12:57.557Z,60.78
2022-08-23T09:15:33.059Z,60.19
2022-08-23T09:18:17.750Z,60.55
2022-08-23T09:20:45.863Z,61.06
2022-08-23T09:23:17.779Z,61.62
2022-08-23T09:26:02.613Z,61.94
2022-08-23T09:28:31.685Z,61.12
2022-08-23T09:30:59.086Z,61.75
2022-08-23T09:33:27.389Z,61.97
2022-08-23T09:36:05.392Z,60.96
2022-08-23T09:38:32.675Z,61.05
2022-08-23T09:40:59.529Z,60.45
2022-08-23T09:43:27.831Z,59.42
2022-08-23T09:45:54.370Z,58.97
2022-08-23T09:48:36.103Z,58.66
2022-08-23T09:51:05.554Z,57.91
2022-08-23T09:53:32.454Z,57.38
2022-08-23T09:56:09.519Z,57.80
2022-08-23T09:58:37.621Z,57.91
2022-08-23T10:01:24.508Z,58.05
2022-08-23T10:04:10.414Z,57.99
2022-08-23T10:06:37.578Z,57.58
2022-08-23T10:09:05.827Z,58.33
2022-08-23T10:11:36.490Z,58.20
2022-08-23T10:14:03.247Z,57.88
2022-08-23T10:16:30.284Z,57.14
2022-08-23T10:18:56.856Z,57.24
2022-08-23T10:21:28.065Z,58.20
2022-08-23T10:24:14.335Z,57.80
2022-08-23T10:26:57.965Z,58.74
2022-08-23T10:29:53.989Z,58.72
2022-08-23T10:32:35.041Z,58.12
2022-08-23T10:35:24.955Z,58.24
2022-08-23T10:37:58.861Z,57.70
2022-08-23T10:40:28.973Z,57.12
2022-08-23T10:43:13.623Z,56.74
2022-08-23T10:45:41.694Z,56.33
2022-08-23T10:48:16.249Z,56.91
2022-08-23T10:51:11.237Z,56.69
2022-08-23T10:53:46.789Z,56.76
2022-08-23T10:56:19.098Z,56.92
2022-08-23T10:58:55.053Z,57.10
2022-08-23T11:01:37.006Z,57.41
2022-08-23T11:04:15.886Z,57.23
2022-08-23T11:06:49.399Z,57.61
2022-08-23T11:09:19.267Z,56.16
2022-08-23T11:12:07.055Z,56.28
2022-08-23T11:14:48.196Z,56.19
2022-08-23T11:17:34.986Z,55.69
2022-08-23T11:20:04.321Z,53.81
2022-08-23T11:22:32.333Z,54.02
2022-08-23T11:25:01.436Z,54.06
2022-08-23T11:27:39.434Z,53.67
2022-08-23T11:30:24.855Z,53.31
2022-08-23T11:32:51.550Z,53.87
2022-08-23T11:35:33.234Z,54.06
2022-08-23T11:38:08.758Z,53.60
2022-08-23T11:40:56.865Z,53.57
2022-08-23T11:43:26.899Z,54.20
2022-08-23T11:45:57.229Z,55.00
2022-08-23T11:48:43.538Z,55.48
2022-08-23T11:51:29.702Z,55.52
2022-08-23T11:53:59.730Z,55.86
2022-08-23T11:56:26.642Z,55.15
2022-08-23T11:59:09.185Z,55.18
2022-08-23T12:01:39.210Z,55.96
2022-08-23T12:04:14.633Z,56.08
2022-08-23T12:06:50.505Z,55.66
2022-08-23T12:09:21.623Z,55.74
2022-08-23T12:11:57.550Z,56.21
2022-08-23T12:14:36.776Z,56.23
2022-08-23T12:17:15.330Z,56.42
2022-08-23T12:19:43.926Z,56.00
2022-08-23T12:22:13.672Z,56.93
2022-08-23T12:24:42.783Z,56.64
2022-08-23T12:27:28.618Z,56.12
2022-08-23T12:30:17.219Z,55.92
2022-08-23T12:32:47.225Z,56.34
2022-08-23T12:35:30.432Z,56.59
2022-08-23T12:38:07.100Z,56.57
2022-08-23T12:40:42.523Z,56.48
2022-08-23T12:43:22.733Z,57.73
2022-08-23T12:45:55.527Z,57.29
2022-08-23T12:48:24.322Z,57.41
2022-08-23T12:50:56.129Z,56.04
2022-08-23T12:53:45.257Z,55.97
2022-08-23T12:56:18.552Z,55.59
2022-08-23T12:58:52.217Z,56.09
2022-08-23T13:01:25.112Z,55.67
2022-08-23T13:04:17.291Z,54.83
2022-08-23T13:06:49.587Z,55.06
2022-08-23T13:09:23.152Z,54.62
2022-08-23T13:11:50.419Z,55.31
2022-08-23T13:14:33.280Z,54.57
2022-08-23T13:17:17.748Z,54.75
2022-08-23T13:19:45.095Z,55.23
2022-08-23T13:22:22.378Z,55.22
2022-08-23T13:25:24.566Z,54.65
2022-08-23T13:27:44.935Z,53.92
2022-08-23T13:30:11.595Z,54.68
2022-08-23T13:32:40.218Z,53.63
2022-08-23T13:35:26.985Z,53.82
2022-08-23T13:38:02.558Z,52.94
2022-08-23T13:40:31.727Z,52.90
2022-08-23T13:43:04.532Z,52.87
2022-08-23T13:45:32.829Z,53.25
2022-08-23T13:48:05.386Z,53.00
2022-08-23T13:50:34.581Z,52.87
2022-08-23T13:53:17.460Z,52.51
2022-08-23T13:55:48.779Z,53.09
2022-08-23T13:58:18.395Z,53.15
2022-08-23T14:00:55.591Z,52.68
2022-08-23T14:03:23.007Z,52.58
2022-08-23T14:05:49.635Z,52.53
2022-08-23T14:08:16.199Z,52.14
2022-08-23T14:10:43.056Z,52.19
2022-08-23T14:13:11.362Z,51.73
2022-08-23T14:15:56.785Z,51.77
2022-08-23T14:18:25.309Z,52.24
2022-08-23T14:20:52.346Z,52.32
2022-08-23T14:23:19.162Z,52.49
2022-08-23T14:25:47.225Z,52.26
2022-08-23T14:28:13.908Z,51.75
2022-08-23T14:30:40.543Z,51.48
2022-08-23T14:33:07.512Z,52.19
2022-08-23T14:35:34.312Z,51.33
2022-08-23T14:38:03.326Z,51.53
2022-08-23T14:40:30.658Z,52.09
2022-08-23T14:42:57.480Z,51.79
2022-08-23T14:45:24.052Z,51.39
2022-08-23T14:47:50.634Z,51.64
2022-08-23T14:50:17.201Z,51.51
2022-08-23T14:52:45.751Z,50.97
2022-08-23T14:55:12.446Z,51.21
2022-08-23T14:57:39.112Z,51.18
2022-08-23T15:00:07.372Z,51.37
2022-08-23T15:02:36.510Z,51.88
2022-08-23T15:05:03.950Z,51.05
2022-08-23T15:07:30.529Z,51.22
2022-08-23T15:09:57.094Z,50.42
2022-08-23T15:15:13.896Z,50.97
2022-08-23T15:17:52.374Z,50.47
2022-08-23T15:20:23.263Z,49.12
2022-08-23T15:22:55.386Z,48.62
2022-08-23T15:25:23.330Z,48.45
2022-08-23T15:27:50.679Z,48.04
2022-08-23T15:30:17.739Z,47.73
2022-08-23T15:32:56.188Z,47.74
2022-08-23T15:35:24.346Z,48.35
2022-08-23T15:37:52.709Z,47.58
2022-08-23T15:40:19.712Z,47.69
2022-08-23T15:42:46.778Z,48.03
2022-08-23T15:45:13.648Z,48.98
2022-08-23T15:47:49.444Z,49.25
2022-08-23T15:50:19.793Z,49.74
2022-08-23T15:52:46.754Z,49.86
2022-08-23T15:55:14.026Z,49.13
2022-08-23T15:57:43.378Z,50.48
2022-08-23T16:00:11.613Z,50.66
2022-08-23T16:02:57.589Z,50.67
2022-08-23T16:05:25.538Z,50.91
2022-08-23T16:07:54.199Z,50.99
2022-08-23T16:10:21.192Z,51.42
2022-08-23T16:12:48.184Z,51.68
2022-08-23T16:15:14.992Z,51.57
2022-08-23T16:17:42.105Z,51.99
2022-08-23T16:20:10.559Z,51.81
2022-08-23T16:22:37.294Z,52.00
2022-08-23T16:25:05.120Z,52.75
2022-08-23T16:27:31.945Z,52.70
2022-08-23T16:29:58.735Z,53.26
2022-08-23T16:32:25.430Z,52.54
2022-08-23T16:34:52.029Z,53.24
2022-08-23T16:37:18.579Z,53.15
2022-08-23T16:39:45.363Z,53.66
2022-08-23T16:42:12.119Z,53.51
2022-08-23T16:44:38.725Z,53.68
2022-08-23T16:47:07.591Z,54.41
2022-08-23T16:49:34.855Z,54.26
2022-08-23T16:52:02.372Z,54.71
2022-08-23T16:54:29.018Z,54.36
2022-08-23T16:56:55.694Z,54.63
2022-08-23T16:59:22.632Z,54.70
2022-08-23T17:01:54.419Z,54.34
2022-08-23T17:04:21.686Z,54.88
2022-08-23T17:06:48.321Z,55.03
2022-08-23T17:09:14.977Z,55.04
2022-08-23T17:11:42.625Z,54.90
2022-08-23T17:14:09.753Z,55.01
2022-08-23T17:16:36.786Z,54.92
2022-08-23T17:19:03.606Z,55.37
2022-08-23T17:21:30.439Z,55.66
2022-08-23T17:23:57.305Z,55.63
2022-08-23T17:26:24.126Z,56.03
2022-08-23T17:28:50.692Z,56.23
2022-08-23T17:31:18.119Z,55.62
2022-08-23T17:33:44.790Z,56.68
2022-08-23T17:36:40.656Z,57.01
2022-08-23T17:39:09.741Z,56.99
2022-08-23T17:41:36.888Z,57.17
2022-08-23T17:44:04.337Z,56.89
2022-08-23T17:46:31.692Z,56.98
2022-08-23T17:48:58.420Z,56.91
2022-08-23T17:51:25.103Z,56.53
2022-08-23T17:53:51.763Z,56.91
2022-08-23T17:56:18.480Z,57.03
2022-08-23T17:58:46.968Z,56.72
2022-08-23T18:01:13.741Z,56.85
2022-08-23T18:03:40.558Z,56.65
2022-08-23T18:06:16.697Z,56.38
2022-08-23T18:08:44.233Z,56.57
2022-08-23T18:11:10.915Z,57.29
2022-08-23T18:13:37.540Z,57.14
2022-08-23T18:16:04.213Z,57.29
2022-08-23T18:18:30.942Z,58.08
2022-08-23T18:20:57.606Z,58.67
2022-08-23T18:23:24.222Z,58.45
2022-08-23T18:25:51.008Z,58.48
2022-08-23T18:28:18.191Z,58.14
2022-08-23T18:30:52.400Z,58.00
2022-08-23T18:33:20.288Z,55.62
2022-08-23T18:35:52.403Z,54.62
2022-08-23T18:38:19.086Z,54.62
2022-08-23T18:40:46.587Z,57.76
2022-08-23T18:43:14.697Z,55.98
2022-08-23T18:45:41.796Z,56.71
2022-08-23T18:48:08.540Z,57.41
2022-08-23T18:50:35.178Z,59.31
2022-08-23T18:53:01.927Z,57.67
2022-08-23T18:55:28.631Z,58.63
2022-08-23T18:57:55.192Z,58.33
2022-08-23T19:00:21.784Z,58.27
2022-08-23T19:02:48.349Z,58.73
2022-08-23T19:05:14.998Z,58.83
2022-08-23T19:07:41.580Z,59.71
2022-08-23T19:10:08.373Z,59.77
2022-08-23T19:12:34.992Z,59.97
2022-08-23T19:15:01.596Z,59.91
2022-08-23T19:17:28.154Z,60.18
2022-08-23T19:19:54.751Z,60.16
2022-08-23T19:22:21.417Z,60.48
2022-08-23T19:24:48.148Z,60.75
2022-08-23T19:27:15.157Z,60.54
2022-08-23T19:29:43.245Z,60.53
2022-08-23T19:32:12.968Z,60.57
2022-08-23T19:34:40.233Z,60.36
2022-08-23T19:37:15.721Z,60.51
2022-08-23T19:39:49.835Z,60.72
2022-08-23T19:42:16.472Z,60.83
2022-08-23T19:44:43.044Z,60.74
2022-08-23T19:47:13.381Z,60.83
2022-08-23T19:49:46.629Z,61.50
2022-08-23T19:52:13.185Z,61.44
2022-08-23T19:54:39.808Z,61.58
2022-08-23T19:57:08.255Z,61.49
2022-08-23T19:59:36.187Z,61.72
2022-08-23T20:02:03.027Z,61.70
2022-08-23T20:04:30.727Z,62.27
2022-08-23T20:06:58.146Z,61.97
2022-08-23T20:09:25.275Z,61.83
2022-08-23T20:11:52.716Z,61.57
2022-08-23T20:14:20.333Z,61.54
2022-08-23T20:16:48.295Z,61.87
2022-08-23T20:19:15.109Z,62.76
2022-08-23T20:21:42.245Z,62.55
2022-08-23T20:24:09.954Z,62.69
2022-08-23T20:26:41.380Z,62.69
2022-08-23T20:29:09.161Z,63.40
2022-08-23T20:31:37.094Z,62.96
2022-08-23T20:34:04.769Z,62.91
2022-08-23T20:36:33.417Z,63.27
2022-08-23T20:39:00.774Z,63.14
2022-08-23T20:41:28.234Z,63.10
2022-08-23T20:43:55.546Z,62.66
2022-08-23T20:46:22.371Z,63.87
2022-08-23T20:48:49.465Z,63.98
2022-08-23T20:51:16.037Z,63.24
2022-08-23T20:53:42.873Z,63.35
2022-08-23T20:56:10.077Z,63.32
2022-08-23T20:58:36.782Z,63.65
2022-08-23T21:01:04.429Z,63.66
2022-08-23T21:03:36.772Z,64.96
2022-08-23T21:06:08.861Z,64.19
2022-08-23T21:08:35.578Z,63.94
2022-08-23T21:11:10.049Z,65.13
2022-08-23T21:13:36.862Z,64.68
2022-08-23T21:16:03.587Z,65.03
2022-08-23T21:18:30.426Z,65.47
2022-08-23T21:20:56.971Z,65.66
2022-08-23T21:23:24.849Z,66.13
2022-08-23T21:25:54.968Z,66.34
2022-08-23T21:28:22.387Z,66.14
2022-08-23T21:30:49.075Z,66.54
2022-08-23T21:33:16.118Z,66.26
2022-08-23T21:35:43.073Z,66.41
2022-08-23T21:38:09.953Z,66.29
2022-08-23T21:40:36.787Z,66.47
2022-08-23T21:43:03.604Z,66.63
2022-08-23T21:45:30.366Z,66.64
2022-08-23T21:47:58.741Z,66.67
2022-08-23T21:50:28.726Z,66.19
2022-08-23T21:52:56.636Z,65.95
2022-08-23T21:55:36.098Z,66.05
2022-08-23T21:58:03.684Z,66.09
2022-08-23T22:00:30.338Z,66.34
2022-08-23T22:02:56.989Z,66.67
2022-08-23T22:05:23.862Z,66.84
2022-08-23T22:07:51.970Z,66.82
2022-08-23T22:10:18.850Z,66.79
2022-08-23T22:12:45.491Z,66.51
2022-08-23T22:15:12.055Z,66.67
2022-08-23T22:17:38.634Z,66.26
2022-08-23T22:20:07.156Z,66.43
2022-08-23T22:22:33.985Z,66.20
2022-08-23T22:25:01.245Z,66.30
2022-08-23T22:27:28.275Z,66.17
2022-08-23T22:29:55.595Z,66.19
2022-08-23T22:32:22.868Z,66.12
2022-08-23T22:34:49.459Z,66.40
2022-08-23T22:37:16.128Z,66.59
2022-08-23T22:39:43.017Z,67.11
2022-08-23T22:42:10.058Z,67.25
2022-08-23T22:44:36.739Z,67.00
2022-08-23T22:47:03.345Z,67.22
2022-08-23T22:49:30.917Z,67.35
2022-08-23T22:51:57.930Z,67.08
2022-08-23T22:54:25.227Z,67.36
2022-08-23T22:56:52.618Z,67.25
2022-08-23T22:59:20.563Z,67.36
2022-08-23T23:01:48.982Z,67.36
2022-08-23T23:04:16.478Z,67.55
2022-08-23T23:06:44.017Z,68.06
2022-08-23T23:09:11.538Z,67.97
2022-08-23T23:11:40.247Z,67.79
2022-08-23T23:14:07.339Z,67.35
2022-08-23T23:16:34.348Z,67.50
2022-08-23T23:19:19.418Z,66.93
2022-08-23T23:21:50.645Z,66.49
2022-08-23T23:24:19.756Z,66.42
2022-08-23T23:26:47.724Z,66.12
2022-08-23T23:29:14.832Z,66.48
2022-08-23T23:31:41.484Z,66.50
2022-08-23T23:34:08.237Z,66.33
2022-08-23T23:36:34.986Z,66.59
2022-08-23T23:39:04.118Z,66.42
2022-08-23T23:41:31.302Z,66.47
2022-08-23T23:43:58.061Z,65.92
2022-08-23T23:46:25.261Z,65.19
2022-08-23T23:48:52.119Z,64.96
2022-08-23T23:51:26.025Z,64.78
2022-08-23T23:53:53.151Z,64.10
2022-08-23T23:56:21.053Z,64.05
2022-08-23T23:58:48.129Z,63.86
